Time;durP1;ratioP1;P1;durP2;ratioP2;P2;SDS_P1;SDS_P2;PMS_P1;PMS_P2;Temp;Humidity;BMP_temperature;BMP_pressure;BME280_temperature;BME280_humidity;BME280_pressure;Samples;Min_cycle;Max_cycle;Signal;HPM_P1;HPM_P2
2024/04/02 00:01:13;;;;;;;;;;;10.40;99.90;;;;;;5052122;28;19917;-72
2024/04/02 00:03:41;;;;;;;;;;;10.30;99.90;;;;;;5052450;28;19911;-71
2024/04/02 00:06:07;;;;;;;;;;;10.20;99.90;;;;;;5052543;28;20353;-72
2024/04/02 00:08:34;;;;;;;;;;;10.20;99.90;;;;;;5053257;28;19919;-71
2024/04/02 00:11:01;;;;;;;;;;;10.20;99.90;;;;;;5052713;28;19915;-71
2024/04/02 00:13:27;;;;;;;;;;;10.20;99.90;;;;;;5052622;28;19904;-71
2024/04/02 00:15:53;;;;;;;;;;;10.20;99.90;;;;;;5052008;28;19925;-71
2024/04/02 00:18:19;;;;;;;;;;;10.20;99.90;;;;;;5053160;28;19904;-71
2024/04/02 00:20:44;;;;;;;;;;;10.20;99.90;;;;;;5052146;28;20273;-71
2024/04/02 00:23:10;;;;;;;;;;;10.20;99.90;;;;;;5052941;28;19917;-71
2024/04/02 00:25:36;;;;;;;;;;;10.20;99.90;;;;;;5048241;28;19909;-72
2024/04/02 00:28:03;;;;;;;;;;;10.20;99.90;;;;;;5052393;28;19905;-72
2024/04/02 00:30:29;;;;;;;;;;;10.20;99.90;;;;;;5051733;28;19928;-71
2024/04/02 00:32:55;;;;;;;;;;;10.20;99.90;;;;;;5052760;28;19918;-76
2024/04/02 00:35:21;;;;;;;;;;;10.10;99.90;;;;;;5051791;28;19924;-77
2024/04/02 00:37:47;;;;;;;;;;;10.10;99.90;;;;;;5052417;28;19909;-76
2024/04/02 00:40:13;;;;;;;;;;;10.10;99.90;;;;;;5051122;28;19909;-76
2024/04/02 00:42:39;;;;;;;;;;;10.10;99.90;;;;;;5052798;28;19915;-76
2024/04/02 00:45:05;;;;;;;;;;;10.10;99.90;;;;;;5052231;28;19987;-76
2024/04/02 00:47:32;;;;;;;;;;;10.10;99.90;;;;;;5052231;28;19912;-74
2024/04/02 00:49:59;;;;;;;;;;;10.10;99.90;;;;;;5052382;28;19909;-76
2024/04/02 00:52:25;;;;;;;;;;;10.10;99.90;;;;;;5052027;28;19920;-76
2024/04/02 00:54:51;;;;;;;;;;;10.00;99.90;;;;;;5051291;28;20288;-77
2024/04/02 00:57:17;;;;;;;;;;;10.10;99.90;;;;;;5051091;28;19920;-76
2024/04/02 00:59:43;;;;;;;;;;;10.10;99.90;;;;;;5052706;28;20389;-76
2024/04/02 01:02:09;;;;;;;;;;;10.10;99.90;;;;;;5050254;28;19913;-76
2024/04/02 01:04:34;;;;;;;;;;;10.10;99.90;;;;;;5052231;28;19908;-76
2024/04/02 01:07:01;;;;;;;;;;;10.10;99.90;;;;;;5051812;28;20241;-76
2024/04/02 01:09:27;;;;;;;;;;;10.10;99.90;;;;;;5052585;28;19905;-76
2024/04/02 01:11:53;;;;;;;;;;;10.10;99.90;;;;;;5051741;28;20270;-77
2024/04/02 01:14:18;;;;;;;;;;;10.10;99.90;;;;;;5051253;28;19912;-76
2024/04/02 01:16:44;;;;;;;;;;;10.00;99.90;;;;;;5051298;28;19920;-77
2024/04/02 01:19:10;;;;;;;;;;;10.00;99.90;;;;;;5052016;28;19974;-77
2024/04/02 01:21:36;;;;;;;;;;;10.00;99.90;;;;;;5051840;28;20008;-76
2024/04/02 01:24:02;;;;;;;;;;;10.00;99.90;;;;;;5052261;28;19905;-76
2024/04/02 01:26:28;;;;;;;;;;;9.90;99.90;;;;;;5038246;28;19909;-76
2024/04/02 01:28:57;;;;;;;;;;;9.90;99.90;;;;;;5032587;28;20332;-75
2024/04/02 01:31:24;;;;;;;;;;;10.00;99.90;;;;;;5041801;28;19917;-76
2024/04/02 01:33:50;;;;;;;;;;;9.90;99.90;;;;;;5051125;28;19905;-77
2024/04/02 01:36:16;;;;;;;;;;;9.90;99.90;;;;;;5051552;28;19916;-76
2024/04/02 01:38:42;;;;;;;;;;;9.90;99.90;;;;;;5052161;28;19951;-76
2024/04/02 01:41:08;;;;;;;;;;;9.90;99.90;;;;;;5051693;28;19920;-71
2024/04/02 01:43:34;;;;;;;;;;;9.80;99.90;;;;;;5052113;28;19905;-72
2024/04/02 01:46:00;;;;;;;;;;;9.90;99.90;;;;;;5052699;28;19913;-72
2024/04/02 01:48:26;;;;;;;;;;;9.90;99.90;;;;;;5054265;28;20285;-71
2024/04/02 01:50:52;;;;;;;;;;;9.80;99.90;;;;;;5055326;28;19908;-71
2024/04/02 01:53:17;;;;;;;;;;;9.90;99.90;;;;;;5054488;28;19911;-71
2024/04/02 01:55:44;;;;;;;;;;;9.90;99.90;;;;;;5053964;28;20284;-71
2024/04/02 01:58:10;;;;;;;;;;;9.90;99.90;;;;;;5055672;28;19916;-72
2024/04/02 02:00:36;;;;;;;;;;;9.90;99.90;;;;;;5054097;28;19931;-71
2024/04/02 02:03:03;;;;;;;;;;;9.80;99.90;;;;;;5046418;28;20354;-71
2024/04/02 02:05:29;;;;;;;;;;;9.80;99.90;;;;;;5033138;28;19924;-72
2024/04/02 02:07:55;;;;;;;;;;;9.80;99.90;;;;;;5032732;28;19916;-72
2024/04/02 02:10:21;;;;;;;;;;;9.80;99.90;;;;;;5035129;28;19913;-72
2024/04/02 02:12:47;;;;;;;;;;;9.80;99.90;;;;;;5054173;28;20290;-72
2024/04/02 02:15:13;;;;;;;;;;;9.80;99.90;;;;;;5045896;28;19916;-71
2024/04/02 02:17:39;;;;;;;;;;;9.80;99.90;;;;;;5053868;28;19947;-72
2024/04/02 02:20:05;;;;;;;;;;;9.80;99.90;;;;;;5052549;28;19904;-72
2024/04/02 02:22:31;;;;;;;;;;;9.90;99.90;;;;;;5053374;28;19921;-71
2024/04/02 02:24:57;;;;;;;;;;;9.90;99.90;;;;;;5035004;28;19905;-71
2024/04/02 02:27:23;;;;;;;;;;;9.90;99.90;;;;;;5033617;28;20281;-72
2024/04/02 02:29:49;;;;;;;;;;;9.90;99.90;;;;;;5033954;28;19976;-71
2024/04/02 02:32:15;;;;;;;;;;;9.90;99.90;;;;;;5049804;28;19919;-71
2024/04/02 02:34:41;;;;;;;;;;;9.90;99.90;;;;;;5049628;28;19915;-71
2024/04/02 02:37:07;;;;;;;;;;;9.90;99.90;;;;;;5040511;28;20354;-71
2024/04/02 02:39:33;;;;;;;;;;;9.90;99.90;;;;;;5035262;28;19953;-71
2024/04/02 02:41:59;;;;;;;;;;;9.90;99.90;;;;;;5049684;28;19909;-72
2024/04/02 02:44:25;;;;;;;;;;;9.90;99.90;;;;;;5054792;28;19927;-71
2024/04/02 02:46:51;;;;;;;;;;;9.90;99.90;;;;;;5052404;28;19976;-72
2024/04/02 02:49:17;;;;;;;;;;;10.00;99.90;;;;;;5054618;28;19923;-75
2024/04/02 02:51:43;;;;;;;;;;;10.00;99.90;;;;;;5054069;28;19935;-75
2024/04/02 02:54:09;;;;;;;;;;;10.00;99.90;;;;;;5054805;28;19912;-76
2024/04/02 02:56:35;;;;;;;;;;;10.00;99.90;;;;;;5053723;28;19928;-75
2024/04/02 02:59:01;;;;;;;;;;;10.00;99.90;;;;;;5054439;28;19916;-76
2024/04/02 03:01:27;;;;;;;;;;;10.00;99.90;;;;;;5053186;28;19909;-75
2024/04/02 03:03:53;;;;;;;;;;;10.00;99.90;;;;;;5052469;28;20297;-76
2024/04/02 03:06:19;;;;;;;;;;;10.00;99.90;;;;;;5054005;28;19948;-76
2024/04/02 03:08:45;;;;;;;;;;;10.00;99.90;;;;;;5054348;28;19908;-76
2024/04/02 03:11:11;;;;;;;;;;;10.10;99.90;;;;;;5053671;28;19931;-76
2024/04/02 03:13:37;;;;;;;;;;;10.00;99.90;;;;;;5053858;28;19911;-75
2024/04/02 03:16:06;;;;;;;;;;;9.90;99.90;;;;;;5053253;28;19956;-76
2024/04/02 03:18:31;;;;;;;;;;;9.90;99.90;;;;;;5052948;28;19917;-75
2024/04/02 03:21:01;;;;;;;;;;;9.90;99.90;;;;;;5053498;28;19931;-76
2024/04/02 03:23:27;;;;;;;;;;;9.90;99.90;;;;;;5053890;28;20396;-76
2024/04/02 03:25:58;;;;;;;;;;;9.90;99.90;;;;;;5044692;28;19912;-76
2024/04/02 03:28:25;;;;;;;;;;;9.90;99.90;;;;;;5034235;28;19920;-76
2024/04/02 03:30:55;;;;;;;;;;;9.80;99.90;;;;;;5037604;28;19913;-75
2024/04/02 03:33:21;;;;;;;;;;;9.80;99.90;;;;;;5053705;28;19904;-75
2024/04/02 03:35:47;;;;;;;;;;;9.80;99.90;;;;;;5053130;28;19940;-76
2024/04/02 03:38:13;;;;;;;;;;;9.80;99.90;;;;;;5053936;28;20277;-75
2024/04/02 03:40:39;;;;;;;;;;;9.80;99.90;;;;;;5053575;28;19913;-76
2024/04/02 03:43:05;;;;;;;;;;;9.80;99.90;;;;;;5053379;28;19905;-75
2024/04/02 03:45:31;;;;;;;;;;;9.80;99.90;;;;;;5052799;28;19996;-75
2024/04/02 03:47:57;;;;;;;;;;;9.80;99.90;;;;;;5053521;28;20337;-76
2024/04/02 03:50:23;;;;;;;;;;;9.80;99.90;;;;;;5053054;28;19915;-75
2024/04/02 03:52:49;;;;;;;;;;;9.80;99.90;;;;;;5053596;28;19905;-76
2024/04/02 03:55:15;;;;;;;;;;;9.80;99.90;;;;;;5052791;28;20325;-76
2024/04/02 03:57:41;;;;;;;;;;;9.80;99.90;;;;;;5053187;28;19920;-71
2024/04/02 04:00:07;;;;;;;;;;;9.80;99.90;;;;;;5052858;28;19909;-71
2024/04/02 04:02:33;;;;;;;;;;;9.80;99.90;;;;;;5053013;28;19908;-72
2024/04/02 04:04:59;;;;;;;;;;;9.80;99.90;;;;;;5052020;28;19932;-71
2024/04/02 04:07:25;;;;;;;;;;;9.90;99.90;;;;;;5052428;28;20357;-71
2024/04/02 04:09:51;;;;;;;;;;;9.90;99.90;;;;;;5052996;28;19912;-71
2024/04/02 04:12:17;;;;;;;;;;;9.90;99.90;;;;;;5052395;28;19919;-71
2024/04/02 04:14:47;;;;;;;;;;;9.90;99.90;;;;;;5053043;28;20272;-72
2024/04/02 04:17:12;;;;;;;;;;;9.80;99.90;;;;;;5052138;28;20357;-71
2024/04/02 04:19:39;;;;;;;;;;;9.80;99.90;;;;;;5053045;28;19908;-71
2024/04/02 04:22:04;;;;;;;;;;;9.90;99.90;;;;;;5052084;28;19943;-72
2024/04/02 04:24:30;;;;;;;;;;;10.00;99.90;;;;;;5053074;28;19905;-71
2024/04/02 04:26:56;;;;;;;;;;;9.90;99.90;;;;;;5034704;28;19909;-71
2024/04/02 04:29:22;;;;;;;;;;;9.90;99.90;;;;;;5033506;28;20380;-71
2024/04/02 04:31:48;;;;;;;;;;;9.80;99.90;;;;;;5045283;28;19924;-71
2024/04/02 04:34:14;;;;;;;;;;;9.90;99.90;;;;;;5052653;28;19999;-71
2024/04/02 04:36:40;;;;;;;;;;;10.00;99.90;;;;;;5052391;28;20381;-71
2024/04/02 04:39:07;;;;;;;;;;;10.10;99.90;;;;;;5052792;28;19905;-72
2024/04/02 04:41:34;;;;;;;;;;;9.90;99.90;;;;;;5051248;28;20392;-71
2024/04/02 04:44:00;;;;;;;;;;;9.90;99.90;;;;;;5052734;28;19912;-72
2024/04/02 04:46:26;;;;;;;;;;;9.90;99.90;;;;;;5051685;28;19912;-72
2024/04/02 04:48:52;;;;;;;;;;;10.00;99.90;;;;;;5052838;28;19908;-71
2024/04/02 04:51:17;;;;;;;;;;;10.00;99.90;;;;;;5051996;28;19909;-72
2024/04/02 04:53:43;;;;;;;;;;;10.00;99.90;;;;;;5052093;28;19908;-71
2024/04/02 04:56:09;;;;;;;;;;;9.90;99.90;;;;;;5051664;28;19917;-72
2024/04/02 04:58:35;;;;;;;;;;;9.90;99.90;;;;;;5052127;28;19909;-72
2024/04/02 05:01:02;;;;;;;;;;;9.90;99.90;;;;;;5051580;28;19912;-71
2024/04/02 05:03:27;;;;;;;;;;;9.90;99.90;;;;;;5052443;28;19905;-72
2024/04/02 05:06:03;;;;;;;;;;;9.80;99.90;;;;;;5051857;28;19920;-71
2024/04/02 05:08:30;;;;;;;;;;;9.80;99.90;;;;;;5052010;28;19905;-71
2024/04/02 05:10:56;;;;;;;;;;;9.80;99.90;;;;;;5051728;28;20336;-75
2024/04/02 05:13:24;;;;;;;;;;;9.80;99.90;;;;;;5052443;28;19905;-76
2024/04/02 05:15:49;;;;;;;;;;;9.80;99.90;;;;;;5051327;28;19928;-76
2024/04/02 05:18:15;;;;;;;;;;;9.80;99.90;;;;;;5052411;28;19905;-75
2024/04/02 05:20:42;;;;;;;;;;;9.80;99.90;;;;;;5054164;28;20238;-76
2024/04/02 05:23:08;;;;;;;;;;;9.70;99.90;;;;;;5056041;28;19917;-76
2024/04/02 05:25:34;;;;;;;;;;;9.80;99.90;;;;;;5049620;28;19909;-75
2024/04/02 05:28:00;;;;;;;;;;;9.70;99.90;;;;;;5055881;28;20273;-76
2024/04/02 05:30:26;;;;;;;;;;;9.70;99.90;;;;;;5055265;28;19917;-76
2024/04/02 05:32:52;;;;;;;;;;;9.70;99.90;;;;;;5055844;28;19912;-74
2024/04/02 05:35:19;;;;;;;;;;;9.70;99.90;;;;;;5055480;28;20007;-76
2024/04/02 05:37:45;;;;;;;;;;;9.70;99.90;;;;;;5055939;28;19908;-75
2024/04/02 05:40:11;;;;;;;;;;;9.70;99.90;;;;;;5055488;28;20376;-76
2024/04/02 05:42:37;;;;;;;;;;;9.70;99.90;;;;;;5035504;28;19916;-76
2024/04/02 05:45:03;;;;;;;;;;;9.70;99.90;;;;;;5035410;28;19909;-74
2024/04/02 05:47:29;;;;;;;;;;;9.60;99.90;;;;;;5054451;28;19911;-76
2024/04/02 05:49:55;;;;;;;;;;;9.70;99.90;;;;;;5055536;28;19915;-76
2024/04/02 05:52:21;;;;;;;;;;;9.70;99.90;;;;;;5055263;28;20376;-76
2024/04/02 05:54:47;;;;;;;;;;;9.80;99.90;;;;;;5055271;28;19923;-76
2024/04/02 05:57:15;;;;;;;;;;;9.80;99.90;;;;;;5055097;28;19919;-76
2024/04/02 05:59:41;;;;;;;;;;;9.80;99.90;;;;;;5055393;28;19952;-75
2024/04/02 06:02:07;;;;;;;;;;;9.80;99.90;;;;;;5053497;28;19912;-76
2024/04/02 06:04:33;;;;;;;;;;;9.80;99.90;;;;;;5055421;28;19989;-76
2024/04/02 06:06:59;;;;;;;;;;;9.90;99.90;;;;;;5055023;28;19916;-77
2024/04/02 06:09:25;;;;;;;;;;;10.00;99.90;;;;;;5054994;28;19911;-76
2024/04/02 06:11:51;;;;;;;;;;;10.00;99.90;;;;;;5054901;28;20018;-71
2024/04/02 06:14:17;;;;;;;;;;;10.00;99.90;;;;;;5054896;28;19911;-71
2024/04/02 06:16:43;;;;;;;;;;;10.00;99.90;;;;;;5054358;28;19928;-71
2024/04/02 06:19:09;;;;;;;;;;;10.00;99.90;;;;;;5053185;28;19912;-71
2024/04/02 06:21:34;;;;;;;;;;;10.10;99.90;;;;;;5054604;28;20387;-70
2024/04/02 06:24:00;;;;;;;;;;;10.10;99.90;;;;;;5054716;28;19912;-71
2024/04/02 06:26:26;;;;;;;;;;;10.10;99.90;;;;;;5041394;28;19913;-71
2024/04/02 06:28:52;;;;;;;;;;;10.10;99.90;;;;;;5035838;28;19928;-71
2024/04/02 06:31:18;;;;;;;;;;;10.10;99.90;;;;;;5043054;28;20361;-71
2024/04/02 06:33:44;;;;;;;;;;;10.20;99.90;;;;;;5054313;28;19909;-71
2024/04/02 06:36:10;;;;;;;;;;;10.20;99.90;;;;;;5054207;28;19983;-72
2024/04/02 06:38:36;;;;;;;;;;;10.20;99.90;;;;;;5054739;28;19912;-71
2024/04/02 06:41:02;;;;;;;;;;;10.30;99.90;;;;;;5053552;28;20332;-71
2024/04/02 06:43:28;;;;;;;;;;;10.30;99.90;;;;;;5054835;28;20340;-71
2024/04/02 06:45:57;;;;;;;;;;;10.30;99.90;;;;;;5053883;28;19917;-71
2024/04/02 06:48:23;;;;;;;;;;;10.30;99.90;;;;;;5054901;28;20074;-72
2024/04/02 06:51:02;;;;;;;;;;;10.40;99.90;;;;;;5054055;28;19963;-71
2024/04/02 06:53:28;;;;;;;;;;;10.40;99.90;;;;;;5054624;28;19912;-71
2024/04/02 06:55:54;;;;;;;;;;;10.40;99.90;;;;;;5053904;28;19921;-71
2024/04/02 06:58:20;;;;;;;;;;;10.50;99.90;;;;;;5054533;28;19948;-72
2024/04/02 07:00:46;;;;;;;;;;;10.40;99.90;;;;;;5052387;28;19919;-71
2024/04/02 07:03:14;;;;;;;;;;;10.50;99.90;;;;;;5054349;28;20299;-71
2024/04/02 07:05:40;;;;;;;;;;;10.50;99.90;;;;;;5053546;28;19905;-71
2024/04/02 07:08:06;;;;;;;;;;;10.60;99.90;;;;;;5054469;28;19909;-71
2024/04/02 07:10:31;;;;;;;;;;;10.60;99.90;;;;;;5053883;28;20285;-71
2024/04/02 07:12:57;;;;;;;;;;;10.60;99.90;;;;;;5054211;28;19909;-72
2024/04/02 07:15:23;;;;;;;;;;;10.60;99.90;;;;;;5053318;28;19909;-71
2024/04/02 07:17:49;;;;;;;;;;;10.60;99.90;;;;;;5054103;28;19908;-71
2024/04/02 07:20:15;;;;;;;;;;;10.60;99.90;;;;;;5053211;28;19905;-71
2024/04/02 07:22:41;;;;;;;;;;;10.60;99.90;;;;;;5053896;28;19935;-71
2024/04/02 07:25:07;;;;;;;;;;;10.60;99.90;;;;;;5051311;28;20277;-72
2024/04/02 07:27:33;;;;;;;;;;;10.70;99.90;;;;;;5033832;28;19913;-71
2024/04/02 07:29:59;;;;;;;;;;;10.70;99.90;;;;;;5034764;28;19916;-74
2024/04/02 07:32:25;;;;;;;;;;;10.70;99.90;;;;;;5051649;28;20304;-74
2024/04/02 07:34:51;;;;;;;;;;;10.70;99.90;;;;;;5053708;28;19915;-74
2024/04/02 07:37:17;;;;;;;;;;;10.70;99.90;;;;;;5053368;28;19959;-74
2024/04/02 07:39:43;;;;;;;;;;;10.80;99.90;;;;;;5053791;28;19905;-74
2024/04/02 07:42:09;;;;;;;;;;;10.80;99.90;;;;;;5052466;28;20357;-74
2024/04/02 07:44:35;;;;;;;;;;;10.90;99.90;;;;;;5053632;28;19913;-74
2024/04/02 07:47:00;;;;;;;;;;;10.90;99.90;;;;;;5053022;28;19913;-74
2024/04/02 07:49:26;;;;;;;;;;;10.90;99.90;;;;;;5052764;28;20289;-73
2024/04/02 07:51:52;;;;;;;;;;;11.00;99.90;;;;;;5052956;28;19912;-74
2024/04/02 07:54:18;;;;;;;;;;;11.00;99.90;;;;;;5053612;28;19904;-74
2024/04/02 07:56:44;;;;;;;;;;;11.10;99.90;;;;;;5052996;28;19916;-74
2024/04/02 07:59:10;;;;;;;;;;;11.10;99.90;;;;;;5053365;28;19905;-73
2024/04/02 08:01:36;;;;;;;;;;;11.10;99.90;;;;;;5052535;28;19919;-73
2024/04/02 08:04:02;;;;;;;;;;;11.10;99.90;;;;;;5051752;28;19940;-74
2024/04/02 08:06:28;;;;;;;;;;;11.10;99.90;;;;;;5052973;28;19910;-73
2024/04/02 08:08:54;;;;;;;;;;;11.20;99.90;;;;;;5052629;28;19919;-73
2024/04/02 08:11:20;;;;;;;;;;;11.20;99.90;;;;;;5052723;28;20338;-74
2024/04/02 08:13:46;;;;;;;;;;;11.20;99.90;;;;;;5052683;28;20292;-73
2024/04/02 08:16:17;;;;;;;;;;;11.10;99.90;;;;;;5052059;28;19913;-74
2024/04/02 08:18:46;;;;;;;;;;;11.20;99.90;;;;;;5052331;28;19913;-74
2024/04/02 08:21:12;;;;;;;;;;;11.20;99.90;;;;;;5052268;28;19916;-73
2024/04/02 08:23:38;;;;;;;;;;;11.20;99.90;;;;;;5053071;28;20355;-73
2024/04/02 08:26:04;;;;;;;;;;;11.20;99.90;;;;;;5048364;28;19909;-74
2024/04/02 08:28:31;;;;;;;;;;;11.30;99.90;;;;;;5052991;28;19905;-73
2024/04/02 08:30:56;;;;;;;;;;;11.30;99.90;;;;;;5052036;28;19913;-73
2024/04/02 08:33:22;;;;;;;;;;;11.40;99.90;;;;;;5052358;28;20284;-77
2024/04/02 08:35:51;;;;;;;;;;;11.40;99.90;;;;;;5050649;28;19909;-77
2024/04/02 08:38:17;;;;;;;;;;;11.50;99.90;;;;;;5051030;28;20288;-77
2024/04/02 08:40:47;;;;;;;;;;;11.40;99.90;;;;;;5052113;28;19912;-77
2024/04/02 08:43:13;;;;;;;;;;;11.40;99.90;;;;;;5051607;28;19916;-78
2024/04/02 08:45:41;;;;;;;;;;;11.50;99.90;;;;;;5050472;28;19972;-77
2024/04/02 08:48:10;;;;;;;;;;;11.50;99.90;;;;;;5051538;28;19905;-77
2024/04/02 08:50:39;;;;;;;;;;;11.50;99.90;;;;;;5050903;28;20396;-77
2024/04/02 08:53:05;;;;;;;;;;;11.50;99.90;;;;;;5052727;28;20265;-77
2024/04/02 08:55:31;;;;;;;;;;;11.60;99.90;;;;;;5054930;28;20297;-77
2024/04/02 08:58:00;;;;;;;;;;;11.60;99.90;;;;;;5056837;28;20277;-78
2024/04/02 09:00:26;;;;;;;;;;;11.70;99.90;;;;;;5054491;28;19909;-77
2024/04/02 09:02:53;;;;;;;;;;;11.80;99.90;;;;;;5056330;28;19904;-75
2024/04/02 09:05:19;;;;;;;;;;;11.80;99.90;;;;;;5056265;28;19908;-77
2024/04/02 09:07:45;;;;;;;;;;;11.90;99.90;;;;;;5055273;28;19916;-77
2024/04/02 09:10:11;;;;;;;;;;;12.00;99.90;;;;;;5056512;28;19904;-77
2024/04/02 09:12:40;;;;;;;;;;;12.00;99.90;;;;;;5036322;28;19955;-77
2024/04/02 09:15:07;;;;;;;;;;;11.90;99.90;;;;;;5035848;28;19913;-77
2024/04/02 09:17:33;;;;;;;;;;;12.00;99.90;;;;;;5054641;28;19916;-76
2024/04/02 09:19:59;;;;;;;;;;;12.00;99.90;;;;;;5056288;28;19905;-77
2024/04/02 09:22:25;;;;;;;;;;;12.10;99.90;;;;;;5054392;28;19923;-77
2024/04/02 09:24:51;;;;;;;;;;;12.10;99.90;;;;;;5056120;28;20323;-77
2024/04/02 09:27:18;;;;;;;;;;;12.10;99.90;;;;;;5035768;28;20365;-77
2024/04/02 09:29:44;;;;;;;;;;;12.10;99.90;;;;;;5036710;28;19905;-78
2024/04/02 09:32:10;;;;;;;;;;;12.10;99.90;;;;;;5051330;28;20273;-78
2024/04/02 09:34:36;;;;;;;;;;;12.20;99.90;;;;;;5055999;28;19924;-74
2024/04/02 09:37:09;;;;;;;;;;;12.20;99.90;;;;;;5054438;28;19917;-74
2024/04/02 09:39:35;;;;;;;;;;;12.20;99.90;;;;;;5054845;28;19909;-73
2024/04/02 09:42:01;;;;;;;;;;;12.30;99.90;;;;;;5055757;28;20492;-74
2024/04/02 09:44:26;;;;;;;;;;;12.30;99.90;;;;;;5054691;28;19905;-73
2024/04/02 09:46:52;;;;;;;;;;;12.30;99.90;;;;;;5053533;28;19920;-72
2024/04/02 09:49:20;;;;;;;;;;;12.40;99.90;;;;;;5054756;28;19905;-73
2024/04/02 09:51:46;;;;;;;;;;;12.40;99.90;;;;;;5054983;28;19908;-74
2024/04/02 09:54:12;;;;;;;;;;;12.40;99.90;;;;;;5055802;28;19905;-73
2024/04/02 09:56:38;;;;;;;;;;;12.50;99.90;;;;;;5053999;28;19916;-73
2024/04/02 09:59:04;;;;;;;;;;;12.50;99.90;;;;;;5055499;28;20357;-74
2024/04/02 10:01:32;;;;;;;;;;;12.60;99.90;;;;;;5054376;28;19913;-74
2024/04/02 10:04:01;;;;;;;;;;;12.70;99.90;;;;;;5054448;28;19904;-73
2024/04/02 10:06:27;;;;;;;;;;;12.80;99.90;;;;;;5052965;28;19923;-73
2024/04/02 10:08:58;;;;;;;;;;;12.90;99.90;;;;;;5055521;28;19924;-73
2024/04/02 10:11:30;;;;;;;;;;;13.00;99.90;;;;;;5054695;28;19912;-74
2024/04/02 10:14:03;;;;;;;;;;;13.10;99.90;;;;;;5055299;28;19909;-74
2024/04/02 10:16:32;;;;;;;;;;;13.20;99.90;;;;;;5054545;28;19928;-75
2024/04/02 10:19:01;;;;;;;;;;;13.30;99.90;;;;;;5054550;28;20250;-74
2024/04/02 10:21:30;;;;;;;;;;;13.50;99.90;;;;;;5054707;28;19909;-74
2024/04/02 10:23:56;;;;;;;;;;;13.70;99.90;;;;;;5054384;28;20254;-74
2024/04/02 10:26:22;;;;;;;;;;;13.80;99.90;;;;;;5050392;28;19995;-73
2024/04/02 10:28:48;;;;;;;;;;;13.90;99.90;;;;;;5055013;28;19931;-74
2024/04/02 10:31:17;;;;;;;;;;;14.00;99.90;;;;;;5053543;28;19917;-74
2024/04/02 10:33:43;;;;;;;;;;;13.90;99.90;;;;;;5055021;28;19916;-73
2024/04/02 10:36:12;;;;;;;;;;;14.00;99.90;;;;;;5045872;28;19908;-74
2024/04/02 10:38:38;;;;;;;;;;;14.00;99.90;;;;;;5054799;28;19920;-78
2024/04/02 10:41:05;;;;;;;;;;;14.00;99.90;;;;;;5054284;28;19995;-78
2024/04/02 10:43:31;;;;;;;;;;;14.00;99.90;;;;;;5053277;28;19905;-78
2024/04/02 10:45:57;;;;;;;;;;;14.00;99.90;;;;;;5052527;28;19913;-78
2024/04/02 10:48:23;;;;;;;;;;;13.90;99.90;;;;;;5054847;28;19905;-78
2024/04/02 10:50:52;;;;;;;;;;;14.00;99.90;;;;;;5054189;28;19908;-78
2024/04/02 10:53:18;;;;;;;;;;;14.30;99.90;;;;;;5054662;28;19998;-78
2024/04/02 10:55:44;;;;;;;;;;;14.50;99.90;;;;;;5054013;28;19924;-78
2024/04/02 10:58:10;;;;;;;;;;;14.60;99.90;;;;;;5054300;28;19912;-78
2024/04/02 11:00:36;;;;;;;;;;;14.60;99.90;;;;;;5053534;28;19927;-78
2024/04/02 11:03:02;;;;;;;;;;;14.60;99.90;;;;;;5053455;28;19905;-79
2024/04/02 11:05:28;;;;;;;;;;;14.60;99.90;;;;;;5052754;28;20258;-78
2024/04/02 11:07:56;;;;;;;;;;;14.50;99.90;;;;;;5054311;28;19959;-78
2024/04/02 11:10:22;;;;;;;;;;;14.50;99.90;;;;;;5053831;28;19904;-78
2024/04/02 11:12:48;;;;;;;;;;;14.50;99.90;;;;;;5054122;28;19909;-78
2024/04/02 11:15:14;;;;;;;;;;;14.50;99.90;;;;;;5052045;28;19908;-78
2024/04/02 11:17:40;;;;;;;;;;;14.50;99.90;;;;;;5054082;28;20007;-78
2024/04/02 11:20:09;;;;;;;;;;;14.60;99.90;;;;;;5054182;28;19905;-78
2024/04/02 11:25:20;;;;;;;;;;;14.80;99.90;;;;;;5054891;28;19976;-77
2024/04/02 11:27:46;;;;;;;;;;;14.90;99.90;;;;;;5033630;28;20275;-76
2024/04/02 11:30:13;;;;;;;;;;;15.10;99.90;;;;;;5033273;28;19905;-76
2024/04/02 11:32:39;;;;;;;;;;;15.20;99.90;;;;;;5014014;28;19905;-76
2024/04/02 11:35:09;;;;;;;;;;;15.30;99.90;;;;;;5028291;28;19916;-77
2024/04/02 11:37:35;;;;;;;;;;;15.30;99.90;;;;;;5053215;28;20320;-76
2024/04/02 11:40:04;;;;;;;;;;;15.30;99.90;;;;;;5053767;28;19923;-76
2024/04/02 11:42:30;;;;;;;;;;;15.30;99.90;;;;;;5052101;28;20289;-76
2024/04/02 11:44:57;;;;;;;;;;;15.30;99.90;;;;;;5053956;28;19905;-73
2024/04/02 11:47:26;;;;;;;;;;;15.30;99.90;;;;;;5051826;28;19919;-74
2024/04/02 11:49:52;;;;;;;;;;;15.30;99.90;;;;;;5053177;28;20333;-74
2024/04/02 11:52:18;;;;;;;;;;;15.30;99.90;;;;;;5053068;28;19916;-74
2024/04/02 11:54:44;;;;;;;;;;;15.30;99.90;;;;;;5053423;28;19951;-74
2024/04/02 12:02:40;;;;;;;;;;;15.60;99.90;;;;;;5052514;28;20718;-75
2024/04/02 12:05:06;;;;;;;;;;;15.70;99.90;;;;;;5053303;28;20375;-74
2024/04/02 12:07:32;;;;;;;;;;;15.80;99.90;;;;;;5053033;28;19909;-74
2024/04/02 12:09:59;;;;;;;;;;;15.80;99.90;;;;;;5053142;28;19908;-74
2024/04/02 12:12:26;;;;;;;;;;;15.80;99.90;;;;;;5051867;28;19932;-74
2024/04/02 12:14:52;;;;;;;;;;;15.90;99.90;;;;;;5053210;28;19916;-74
2024/04/02 12:17:17;;;;;;;;;;;16.00;99.90;;;;;;5052232;28;19921;-74
2024/04/02 12:19:44;;;;;;;;;;;16.10;99.90;;;;;;5052904;28;19916;-74
2024/04/02 12:22:11;;;;;;;;;;;16.10;99.90;;;;;;5052683;28;20357;-74
2024/04/02 12:24:37;;;;;;;;;;;16.10;99.90;;;;;;5052285;28;19905;-74
2024/04/02 12:27:04;;;;;;;;;;;16.10;99.90;;;;;;5034204;28;19916;-74
2024/04/02 12:29:29;;;;;;;;;;;16.10;99.90;;;;;;5032552;28;20388;-74
2024/04/02 12:31:55;;;;;;;;;;;16.10;99.90;;;;;;5046695;28;19916;-74
2024/04/02 12:34:22;;;;;;;;;;;16.10;99.90;;;;;;5052757;28;19904;-75
2024/04/02 12:36:48;;;;;;;;;;;16.20;99.90;;;;;;5052559;28;19913;-75
2024/04/02 12:39:14;;;;;;;;;;;16.20;99.90;;;;;;5052571;28;20353;-74
2024/04/02 12:41:40;;;;;;;;;;;16.20;99.90;;;;;;5051539;28;19916;-74
2024/04/02 12:44:07;;;;;;;;;;;16.20;99.90;;;;;;5052653;28;19912;-74
2024/04/02 12:46:33;;;;;;;;;;;16.10;99.90;;;;;;5051077;28;19967;-74
2024/04/02 12:49:00;;;;;;;;;;;16.10;99.90;;;;;;5052529;28;20262;-71
2024/04/02 12:51:26;;;;;;;;;;;16.00;99.90;;;;;;5052089;28;20427;-72
2024/04/02 12:53:52;;;;;;;;;;;16.00;99.90;;;;;;5052298;28;19905;-72
2024/04/02 12:56:18;;;;;;;;;;;15.90;99.90;;;;;;5052054;28;19909;-71
2024/04/02 12:58:43;;;;;;;;;;;15.90;99.90;;;;;;5052652;28;19908;-74
2024/04/02 13:01:09;;;;;;;;;;;15.80;99.90;;;;;;5051436;28;19912;-72
2024/04/02 13:03:36;;;;;;;;;;;15.80;99.90;;;;;;5052680;28;19909;-72
2024/04/02 13:06:02;;;;;;;;;;;15.80;99.90;;;;;;5049992;28;19908;-72
2024/04/02 13:08:28;;;;;;;;;;;15.80;99.90;;;;;;5052192;28;19911;-72
2024/04/02 13:10:54;;;;;;;;;;;15.80;99.90;;;;;;5051904;28;19955;-72
2024/04/02 13:13:20;;;;;;;;;;;15.80;99.90;;;;;;5052513;28;19905;-73
2024/04/02 13:15:46;;;;;;;;;;;15.80;99.90;;;;;;5051470;28;19912;-72
2024/04/02 13:18:12;;;;;;;;;;;15.80;99.90;;;;;;5051663;28;19912;-72
2024/04/02 13:20:38;;;;;;;;;;;15.70;99.90;;;;;;5051542;28;19940;-72
2024/04/02 13:23:05;;;;;;;;;;;15.70;99.90;;;;;;5051836;28;19924;-72
2024/04/02 13:25:31;;;;;;;;;;;15.70;99.90;;;;;;5045671;28;19909;-72
2024/04/02 13:27:57;;;;;;;;;;;15.70;99.90;;;;;;5032448;28;19920;-72
2024/04/02 13:30:23;;;;;;;;;;;15.70;99.90;;;;;;5033576;28;20004;-72
2024/04/02 13:32:49;;;;;;;;;;;15.80;99.90;;;;;;5052355;28;19912;-72
2024/04/02 13:35:19;;;;;;;;;;;15.80;99.90;;;;;;5051570;28;19909;-72
2024/04/02 13:37:46;;;;;;;;;;;15.80;99.90;;;;;;5051395;28;19927;-72
2024/04/02 13:40:12;;;;;;;;;;;15.80;99.90;;;;;;5051918;28;19905;-72
2024/04/02 13:42:38;;;;;;;;;;;15.80;99.90;;;;;;5055849;28;19956;-72
2024/04/02 13:45:05;;;;;;;;;;;15.90;99.90;;;;;;5055610;28;20349;-72
2024/04/02 13:47:34;;;;;;;;;;;15.90;99.90;;;;;;5055479;28;19908;-72
2024/04/02 13:50:00;;;;;;;;;;;16.00;99.90;;;;;;5055846;28;19931;-77
2024/04/02 13:52:32;;;;;;;;;;;16.00;99.90;;;;;;5054965;28;19913;-76
2024/04/02 13:54:58;;;;;;;;;;;16.10;99.90;;;;;;5054697;28;20341;-76
2024/04/02 13:57:24;;;;;;;;;;;16.20;99.90;;;;;;5055270;28;19924;-77
2024/04/02 13:59:52;;;;;;;;;;;16.20;99.90;;;;;;5054387;28;19905;-77
2024/04/02 14:02:21;;;;;;;;;;;16.20;99.90;;;;;;5054481;28;20293;-77
2024/04/02 14:04:47;;;;;;;;;;;16.30;99.90;;;;;;5055513;28;19905;-76
2024/04/02 14:07:13;;;;;;;;;;;16.40;99.90;;;;;;5054707;28;20388;-77
2024/04/02 14:09:39;;;;;;;;;;;16.40;99.90;;;;;;5055452;28;19912;-77
2024/04/02 14:12:05;;;;;;;;;;;16.50;99.90;;;;;;5055056;28;20297;-77
2024/04/02 14:14:31;;;;;;;;;;;16.50;99.90;;;;;;5054961;28;19911;-77
2024/04/02 14:16:57;;;;;;;;;;;16.40;99.90;;;;;;5054412;28;20281;-76
2024/04/02 14:19:23;;;;;;;;;;;16.40;99.90;;;;;;5055206;28;19909;-76
2024/04/02 14:21:51;;;;;;;;;;;16.50;99.90;;;;;;5054238;28;19928;-77
2024/04/02 14:24:17;;;;;;;;;;;16.40;99.90;;;;;;5055044;28;20261;-77